Time;durP1;ratioP1;P1;durP2;ratioP2;P2;SDS_P1;SDS_P2;PMS_P1;PMS_P2;Temp;Humidity;BMP_temperature;BMP_pressure;BME280_temperature;BME280_humidity;BME280_pressure;Samples;Min_cycle;Max_cycle;Signal;HPM_P1;HPM_P2
2024/02/18 00:04:01;;;;;;;1999.90;999.90;;;;;;;10.44;100.00;103069.22;10214375;29;20127;-68
2024/02/18 00:09:04;;;;;;;1999.90;999.90;;;;;;;10.82;100.00;103050.97;10213507;29;20055;-69
2024/02/18 00:14:06;;;;;;;1999.90;999.90;;;;;;;10.71;100.00;103045.97;10213589;29;20487;-69
2024/02/18 00:19:09;;;;;;;1999.90;999.90;;;;;;;10.60;100.00;103043.56;10215726;29;20047;-69
2024/02/18 00:24:12;;;;;;;1999.90;999.90;;;;;;;10.56;100.00;103034.06;10221745;29;20111;-68
2024/02/18 00:29:14;;;;;;;1999.90;999.90;;;;;;;10.46;100.00;103024.69;10220416;29;20052;-68
2024/02/18 00:34:23;;;;;;;1999.90;999.90;;;;;;;10.71;100.00;103025.88;10220197;29;20064;-69
2024/02/18 00:39:26;;;;;;;1999.90;999.90;;;;;;;10.49;100.00;103037.69;10221157;29;20048;-68
2024/02/18 00:44:29;;;;;;;1999.90;999.90;;;;;;;10.63;100.00;103029.56;10221163;29;20052;-68
2024/02/18 00:49:32;;;;;;;1999.90;999.90;;;;;;;10.74;100.00;103020.56;10221374;29;20051;-69
2024/02/18 00:54:36;;;;;;;1999.90;999.90;;;;;;;10.81;100.00;103009.91;10219422;29;20134;-69
2024/02/18 00:59:39;;;;;;;1999.90;999.90;;;;;;;10.60;100.00;103014.75;10220331;29;20043;-68
2024/02/18 01:04:41;;;;;;;1999.90;999.90;;;;;;;10.85;100.00;103004.56;10220238;29;20059;-69
2024/02/18 01:09:46;;;;;;;1999.90;999.90;;;;;;;10.62;100.00;103002.47;10218440;29;20090;-68
2024/02/18 01:14:48;;;;;;;1999.90;999.90;;;;;;;10.56;100.00;103002.63;10219872;29;20051;-69
2024/02/18 01:19:57;;;;;;;1999.90;999.90;;;;;;;10.60;100.00;102996.41;10218987;29;20403;-69
2024/02/18 01:24:59;;;;;;;1999.90;999.90;;;;;;;10.55;100.00;102990.41;10218442;29;20107;-69
2024/02/18 01:30:02;;;;;;;1999.90;999.90;;;;;;;10.45;100.00;102991.50;10218270;29;20052;-69
2024/02/18 01:35:05;;;;;;;1999.90;999.90;;;;;;;10.38;100.00;102989.03;10219074;29;20062;-69
2024/02/18 01:40:08;;;;;;;1999.90;999.90;;;;;;;10.70;100.00;102982.19;10218862;29;20051;-69
2024/02/18 01:45:11;;;;;;;1999.90;999.90;;;;;;;10.44;100.00;102976.69;10217505;29;20051;-69
2024/02/18 01:50:14;;;;;;;1999.90;999.90;;;;;;;10.38;100.00;102961.97;10217933;29;20055;-69
2024/02/18 01:55:17;;;;;;;1999.90;999.90;;;;;;;10.30;100.00;102964.72;10217206;29;20055;-69
2024/02/18 02:00:20;;;;;;;1999.90;999.90;;;;;;;10.38;100.00;102949.75;10217012;29;20134;-69
2024/02/18 02:05:23;;;;;;;1999.90;999.90;;;;;;;10.53;100.00;102956.41;10217324;29;20063;-69
2024/02/18 02:10:25;;;;;;;1999.90;999.90;;;;;;;10.47;100.00;102951.28;10215825;29;20060;-69
2024/02/18 02:15:27;;;;;;;1999.90;999.90;;;;;;;10.54;100.00;102954.63;10216475;29;20056;-70
2024/02/18 02:20:30;;;;;;;1999.90;999.90;;;;;;;10.70;100.00;102953.38;10215535;29;20055;-69
2024/02/18 02:25:33;;;;;;;1999.90;999.90;;;;;;;10.44;100.00;102953.13;10217199;29;20052;-69
2024/02/18 02:30:35;;;;;;;1999.90;999.90;;;;;;;10.38;100.00;102954.97;10216383;29;20483;-69
2024/02/18 02:35:38;;;;;;;1999.90;999.90;;;;;;;10.76;100.00;102945.38;10215009;29;20083;-69
2024/02/18 02:40:40;;;;;;;1999.90;999.90;;;;;;;10.61;100.00;102951.00;10216605;29;20241;-69
2024/02/18 02:45:43;;;;;;;1999.90;999.90;;;;;;;10.51;100.00;102945.09;10214641;29;20500;-69
2024/02/18 02:50:45;;;;;;;1999.90;999.90;;;;;;;10.37;100.00;102934.06;10215119;29;20048;-68
2024/02/18 02:55:48;;;;;;;1999.90;999.90;;;;;;;10.57;100.00;102931.00;10215466;29;20514;-69
2024/02/18 03:00:50;;;;;;;1999.90;999.90;;;;;;;10.57;100.00;102926.63;10215321;29;20483;-69
2024/02/18 03:05:53;;;;;;;1999.90;999.90;;;;;;;10.39;100.00;102924.44;10215185;29;20059;-69
2024/02/18 03:10:55;;;;;;;1999.90;999.90;;;;;;;10.43;100.00;102917.38;10214837;29;20491;-69
2024/02/18 03:15:58;;;;;;;1999.90;999.90;;;;;;;10.32;100.00;102915.88;10198052;29;20126;-69
2024/02/18 03:21:00;;;;;;;1999.90;999.90;;;;;;;10.39;100.00;102906.97;10215202;29;20047;-69
2024/02/18 03:26:03;;;;;;;1999.90;999.90;;;;;;;10.63;100.00;102906.44;10215177;29;20055;-69
2024/02/18 03:31:05;;;;;;;1999.90;999.90;;;;;;;10.29;100.00;102900.19;10214374;29;20138;-69
2024/02/18 03:36:07;;;;;;;1999.90;999.90;;;;;;;10.28;100.00;102884.50;10214904;29;20156;-69
2024/02/18 03:41:10;;;;;;;1999.90;999.90;;;;;;;10.42;100.00;102885.06;10214081;29;20051;-69
2024/02/18 03:46:12;;;;;;;1999.90;999.90;;;;;;;10.26;100.00;102870.59;10214758;29;20056;-69
2024/02/18 03:51:15;;;;;;;1999.90;999.90;;;;;;;10.27;100.00;102867.94;10213990;29;20411;-69
2024/02/18 03:56:17;;;;;;;1999.90;999.90;;;;;;;10.25;100.00;102861.00;10219970;29;20051;-68
2024/02/18 04:01:20;;;;;;;1999.90;999.90;;;;;;;10.32;100.00;102853.03;10222544;29;20090;-69
2024/02/18 04:06:22;;;;;;;1999.90;999.90;;;;;;;10.30;100.00;102836.44;10221297;29;20057;-69
2024/02/18 04:11:24;;;;;;;1999.90;999.90;;;;;;;10.26;100.00;102828.72;10221423;29;20055;-69
2024/02/18 04:16:27;;;;;;;1999.90;999.90;;;;;;;10.28;100.00;102819.91;10222051;29;20059;-69
2024/02/18 04:21:29;;;;;;;1999.90;999.90;;;;;;;10.30;100.00;102812.00;10220645;29;20044;-68
2024/02/18 04:26:32;;;;;;;1999.90;999.90;;;;;;;10.25;100.00;102806.88;10233810;23;20052;-69
2024/02/18 04:31:34;;;;;;;1999.90;999.90;;;;;;;10.22;100.00;102801.72;10221540;29;20051;-69
2024/02/18 04:36:37;;;;;;;1999.90;999.90;;;;;;;10.28;100.00;102796.34;10220673;29;20403;-70
2024/02/18 04:41:39;;;;;;;1999.90;999.90;;;;;;;10.10;100.00;102795.00;10219975;29;20095;-69
2024/02/18 04:46:41;;;;;;;1999.90;999.90;;;;;;;10.00;100.00;102789.16;10219818;29;20055;-69
2024/02/18 04:51:44;;;;;;;1999.90;999.90;;;;;;;9.95;100.00;102788.41;10220205;29;20131;-69
2024/02/18 04:56:46;;;;;;;1999.90;999.90;;;;;;;10.11;100.00;102783.66;10219964;29;20055;-69
2024/02/18 05:01:49;;;;;;;1999.90;999.90;;;;;;;9.88;100.00;102778.94;10220348;29;20047;-69
2024/02/18 05:06:51;;;;;;;1999.90;999.90;;;;;;;9.87;100.00;102766.78;10220126;29;20051;-68
2024/02/18 05:11:54;;;;;;;1999.90;999.90;;;;;;;9.75;100.00;102764.44;10218879;29;20059;-68
2024/02/18 05:16:59;;;;;;;1999.90;999.90;;;;;;;9.58;100.00;102765.69;10219232;29;20400;-68
2024/02/18 05:22:02;;;;;;;1999.90;999.90;;;;;;;9.46;100.00;102747.63;10219603;29;20068;-68
2024/02/18 05:27:05;;;;;;;1999.90;999.90;;;;;;;9.54;100.00;102743.09;10219488;29;20048;-68
2024/02/18 05:32:07;;;;;;;1999.90;999.90;;;;;;;9.47;100.00;102733.66;10218799;29;20147;-68
2024/02/18 05:37:09;;;;;;;1999.90;999.90;;;;;;;9.17;100.00;102722.97;10218457;29;20055;-69
2024/02/18 05:42:12;;;;;;;1999.90;999.90;;;;;;;9.36;100.00;102712.97;10217781;29;20056;-69
2024/02/18 05:47:15;;;;;;;1999.90;999.90;;;;;;;9.21;100.00;102710.69;10218700;29;20051;-68
2024/02/18 05:52:17;;;;;;;1999.90;999.90;;;;;;;9.26;100.00;102711.44;10216773;29;20412;-68
2024/02/18 05:57:19;;;;;;;1999.90;999.90;;;;;;;9.03;100.00;102698.88;10218288;29;20060;-69
2024/02/18 06:02:22;;;;;;;1999.90;999.90;;;;;;;9.02;100.00;102691.94;10217610;29;20047;-68
2024/02/18 06:07:25;;;;;;;1999.90;999.90;;;;;;;8.99;100.00;102685.00;10200428;29;20135;-69
2024/02/18 06:12:28;;;;;;;1999.90;999.90;;;;;;;8.99;100.00;102674.53;10216022;29;20047;-68
2024/02/18 06:17:30;;;;;;;1999.90;999.90;;;;;;;9.00;100.00;102665.84;10216457;29;20523;-68
2024/02/18 06:22:33;;;;;;;1999.90;999.90;;;;;;;9.04;100.00;102661.41;10216574;29;20463;-69
2024/02/18 06:27:36;;;;;;;1999.90;999.90;;;;;;;9.10;100.00;102659.50;10215402;29;20048;-69
2024/02/18 06:32:38;;;;;;;1999.90;999.90;;;;;;;8.92;100.00;102652.91;10215102;29;20506;-69
2024/02/18 06:37:41;;;;;;;1999.90;999.90;;;;;;;8.99;100.00;102637.97;10216680;29;20058;-68
2024/02/18 06:42:44;;;;;;;1999.90;999.90;;;;;;;9.05;100.00;102639.63;10215860;29;20467;-69
2024/02/18 06:47:47;;;;;;;1999.90;999.90;;;;;;;8.88;100.00;102629.53;10216264;29;20075;-69
2024/02/18 06:52:50;;;;;;;1999.90;999.90;;;;;;;8.81;100.00;102613.13;10215801;29;20054;-68
2024/02/18 06:57:52;;;;;;;1999.90;999.90;;;;;;;8.90;100.00;102604.22;10214320;29;20488;-69
2024/02/18 07:02:54;;;;;;;1999.90;999.90;;;;;;;8.95;100.00;102598.91;10216009;29;20079;-69
2024/02/18 07:07:57;;;;;;;1999.90;999.90;;;;;;;8.95;100.00;102599.75;10215076;29;20480;-69
2024/02/18 07:12:59;;;;;;;1999.90;999.90;;;;;;;8.93;100.00;102591.94;10213888;29;20487;-69
2024/02/18 07:18:02;;;;;;;1999.90;999.90;;;;;;;9.01;100.00;102588.31;10213676;29;20051;-69
2024/02/18 07:23:04;;;;;;;1999.90;999.90;;;;;;;8.87;100.00;102583.38;10214932;29;20098;-69
2024/02/18 07:28:07;;;;;;;1999.90;999.90;;;;;;;8.91;100.00;102579.84;10212558;29;20062;-68
2024/02/18 07:33:10;;;;;;;1999.90;999.90;;;;;;;8.90;100.00;102568.50;10213238;29;20472;-69
2024/02/18 07:38:13;;;;;;;1999.90;999.90;;;;;;;8.96;100.00;102574.47;10213774;29;20056;-69
2024/02/18 07:43:15;;;;;;;1999.90;999.90;;;;;;;8.68;100.00;102562.88;10212913;29;20058;-69
2024/02/18 07:48:18;;;;;;;1999.90;999.90;;;;;;;8.66;100.00;102556.84;10214649;29;20055;-69
2024/02/18 07:53:20;;;;;;;1999.90;999.90;;;;;;;8.82;100.00;102553.91;10214003;29;20118;-69
2024/02/18 07:58:23;;;;;;;1999.90;999.90;;;;;;;8.70;100.00;102553.25;10213339;29;20048;-70
2024/02/18 08:03:25;;;;;;;1999.90;999.90;;;;;;;8.97;100.00;102544.88;10213252;29;20079;-69
2024/02/18 08:08:27;;;;;;;1999.90;999.90;;;;;;;8.83;100.00;102538.19;10213734;29;20450;-69
2024/02/18 08:13:30;;;;;;;1999.90;999.90;;;;;;;8.99;100.00;102541.31;10214319;29;20044;-69
2024/02/18 08:18:32;;;;;;;1999.90;999.90;;;;;;;8.94;100.00;102532.72;10197357;29;20107;-69
2024/02/18 08:23:35;;;;;;;1999.90;999.90;;;;;;;8.81;100.00;102528.66;10213464;29;20059;-69
2024/02/18 08:28:37;;;;;;;1999.90;999.90;;;;;;;8.76;100.00;102523.56;10212890;29;20175;-69
2024/02/18 08:33:39;;;;;;;1999.90;999.90;;;;;;;9.17;100.00;102526.97;10213275;29;20490;-69
2024/02/18 08:38:43;;;;;;;1999.90;999.90;;;;;;;8.83;100.00;102526.91;10203171;29;20052;-68
2024/02/18 08:43:52;;;;;;;1999.90;999.90;;;;;;;9.07;100.00;102525.47;10195014;29;20043;-68
2024/02/18 08:48:55;;;;;;;1999.90;999.90;;;;;;;9.02;100.00;102520.34;10182897;29;20116;-69
2024/02/18 08:53:59;;;;;;;1999.90;999.90;;;;;;;8.80;100.00;102517.38;10184774;29;20055;-69
2024/02/18 08:59:02;;;;;;;1999.90;999.90;;;;;;;9.04;100.00;102513.31;10186193;29;20062;-69
2024/02/18 09:04:05;;;;;;;1999.90;999.90;;;;;;;8.76;100.00;102507.91;10204592;29;20107;-68
2024/02/18 09:09:08;;;;;;;1999.90;999.90;;;;;;;8.83;100.00;102504.25;10201647;29;20134;-67
2024/02/18 09:14:11;;;;;;;1999.90;999.90;;;;;;;8.76;100.00;102500.06;10185437;29;20044;-68
2024/02/18 09:19:14;;;;;;;1999.90;999.90;;;;;;;8.67;100.00;102493.25;10215689;29;20056;-68
2024/02/18 09:24:19;;;;;;;1999.90;999.90;;;;;;;8.78;100.00;102487.81;10208349;29;20047;-68
2024/02/18 09:29:22;;;;;;;1999.90;999.90;;;;;;;8.72;100.00;102482.72;10184247;29;20134;-68
2024/02/18 09:34:25;;;;;;;1999.90;999.90;;;;;;;8.69;100.00;102464.50;10196959;29;20111;-68
2024/02/18 09:39:27;;;;;;;1999.90;999.90;;;;;;;8.80;100.00;102469.50;10217912;29;20173;-68
2024/02/18 09:44:34;;;;;;;1999.90;999.90;;;;;;;8.90;100.00;102457.94;10178480;29;20052;-69
2024/02/18 09:49:37;;;;;;;1999.90;999.90;;;;;;;8.84;100.00;102458.06;10176642;29;20074;-68
2024/02/18 09:54:40;;;;;;;1999.90;999.90;;;;;;;8.96;100.00;102433.41;10176819;29;20051;-69
2024/02/18 09:59:42;;;;;;;1999.90;999.90;;;;;;;8.84;100.00;102437.19;10177615;29;20063;-69
2024/02/18 10:04:46;;;;;;;1999.90;999.90;;;;;;;8.96;100.00;102434.28;10177066;29;20048;-68
2024/02/18 10:09:49;;;;;;;1999.90;999.90;;;;;;;8.95;100.00;102413.44;10176934;29;20052;-68
2024/02/18 10:15:03;;;;;;;1999.90;999.90;;;;;;;8.85;100.00;102407.56;10178463;29;20052;-69
2024/02/18 10:20:06;;;;;;;1999.90;999.90;;;;;;;8.74;100.00;102395.63;10177103;29;20068;-69
2024/02/18 10:25:09;;;;;;;1999.90;999.90;;;;;;;9.00;100.00;102377.59;10176477;29;20060;-69
2024/02/18 10:30:12;;;;;;;1999.90;999.90;;;;;;;8.51;100.00;102390.94;10176679;29;20051;-69
2024/02/18 10:35:15;;;;;;;1999.90;999.90;;;;;;;8.89;100.00;102376.13;10177141;29;20092;-69
2024/02/18 10:40:35;;;;;;;1999.90;999.90;;;;;;;8.68;100.00;102343.53;10177280;29;20081;-69
2024/02/18 10:45:41;;;;;;;1999.90;999.90;;;;;;;8.62;100.00;102346.28;10175600;29;20448;-68
2024/02/18 10:50:49;;;;;;;1999.90;999.90;;;;;;;8.61;100.00;102343.72;10176376;29;20044;-69
2024/02/18 10:56:07;;;;;;;1999.90;999.90;;;;;;;8.66;100.00;102340.13;10175893;29;20056;-69
2024/02/18 11:01:12;;;;;;;1999.90;999.90;;;;;;;8.70;100.00;102326.06;10176793;29;20052;-69
2024/02/18 11:06:15;;;;;;;1999.90;999.90;;;;;;;8.84;100.00;102317.91;10175405;29;20139;-69
2024/02/18 11:11:18;;;;;;;1999.90;999.90;;;;;;;8.82;100.00;102301.41;10159130;29;20385;-69
2024/02/18 11:16:21;;;;;;;1999.90;999.90;;;;;;;8.91;100.00;102288.13;10174511;29;20401;-69
2024/02/18 11:21:25;;;;;;;1999.90;999.90;;;;;;;9.05;100.00;102268.59;10174337;29;20052;-69
2024/02/18 11:26:28;;;;;;;1999.90;999.90;;;;;;;8.93;100.00;102267.19;10174309;29;20059;-69
2024/02/18 11:31:30;;;;;;;1999.90;999.90;;;;;;;9.02;100.00;102243.41;10174683;29;20051;-69
2024/02/18 11:36:33;;;;;;;1999.90;999.90;;;;;;;9.04;100.00;102231.16;10175097;29;20535;-69
2024/02/18 11:41:36;;;;;;;1999.90;999.90;;;;;;;8.84;100.00;102208.22;10175586;29;20055;-69
2024/02/18 11:46:41;;;;;;;1999.90;999.90;;;;;;;8.88;100.00;102186.34;10174335;29;20059;-69
2024/02/18 11:51:44;;;;;;;1999.90;999.90;;;;;;;8.85;100.00;102169.91;10174832;29;20136;-69
2024/02/18 11:56:47;;;;;;;1999.90;999.90;;;;;;;8.76;100.00;102157.97;10173575;29;20591;-66
2024/02/18 12:01:49;;;;;;;1999.90;999.90;;;;;;;8.71;100.00;102133.72;10175348;29;20136;-69
2024/02/18 12:06:52;;;;;;;1999.90;999.90;;;;;;;8.57;100.00;102126.25;10174550;29;20055;-69
2024/02/18 12:11:54;;;;;;;1999.90;999.90;;;;;;;8.52;100.00;102118.56;10174464;29;20103;-69
2024/02/18 12:16:57;;;;;;;1999.90;999.90;;;;;;;8.46;100.00;102110.06;10178472;29;20056;-69
2024/02/18 12:21:59;;;;;;;1999.90;999.90;;;;;;;8.35;100.00;102086.81;10180829;29;20484;-69
2024/02/18 12:27:03;;;;;;;1999.90;999.90;;;;;;;8.68;100.00;102081.59;10181923;29;20135;-69
2024/02/18 12:32:06;;;;;;;1999.90;999.90;;;;;;;8.52;100.00;102074.19;10181106;29;20052;-69
2024/02/18 12:37:09;;;;;;;1999.90;999.90;;;;;;;8.50;100.00;102047.25;10180311;29;20480;-69
2024/02/18 12:42:31;;;;;;;1999.90;999.90;;;;;;;8.63;100.00;102047.78;10181643;29;20048;-69
2024/02/18 12:47:37;;;;;;;1999.90;999.90;;;;;;;8.53;100.00;102041.97;10181778;29;20080;-69
2024/02/18 12:52:40;;;;;;;1999.90;999.90;;;;;;;8.42;100.00;102038.75;10181573;29;20044;-69
2024/02/18 12:57:43;;;;;;;1999.90;999.90;;;;;;;8.58;100.00;102036.63;10179572;29;20048;-69
2024/02/18 13:02:53;;;;;;;1999.90;999.90;;;;;;;8.51;100.00;102033.31;10181185;29;20061;-69
2024/02/18 13:07:56;;;;;;;1999.90;999.90;;;;;;;8.79;100.00;102029.88;10181021;29;20056;-69
2024/02/18 13:12:59;;;;;;;1999.90;999.90;;;;;;;8.69;100.00;102016.28;10179241;29;20123;-69
2024/02/18 13:18:02;;;;;;;1999.90;999.90;;;;;;;8.89;100.00;102012.19;10180677;29;20052;-69
2024/02/18 13:23:04;;;;;;;1999.90;999.90;;;;;;;8.71;100.00;101992.72;10180425;29;20052;-69
2024/02/18 13:28:06;;;;;;;1999.90;999.90;;;;;;;8.93;100.00;101991.16;10178185;29;20056;-69
2024/02/18 13:33:09;;;;;;;1999.90;999.90;;;;;;;8.83;100.00;101975.84;10179473;29;20484;-69
2024/02/18 13:38:12;;;;;;;1999.90;999.90;;;;;;;8.68;100.00;101951.88;10178810;29;20131;-69
2024/02/18 13:43:15;;;;;;;1999.90;999.90;;;;;;;9.03;100.00;101943.84;10179905;29;20062;-69
2024/02/18 13:48:17;;;;;;;1999.90;999.90;;;;;;;8.91;100.00;101927.66;10179567;29;20051;-69
2024/02/18 13:53:20;;;;;;;1999.90;999.90;;;;;;;8.81;100.00;101917.53;10179210;29;20087;-69
2024/02/18 13:58:22;;;;;;;1999.90;999.90;;;;;;;8.82;100.00;101898.38;10178592;29;20411;-69
2024/02/18 14:03:25;;;;;;;1999.90;999.90;;;;;;;9.00;100.00;101886.47;10178391;29;20404;-69
2024/02/18 14:08:27;;;;;;;1999.90;999.90;;;;;;;8.72;100.00;101867.34;10178178;29;20407;-69
2024/02/18 14:13:30;;;;;;;1999.90;999.90;;;;;;;8.96;100.00;101867.44;10176825;29;20534;-70
2024/02/18 14:18:32;;;;;;;1999.90;999.90;;;;;;;9.05;100.00;101855.84;10177247;29;20136;-69
2024/02/18 14:23:35;;;;;;;1999.90;999.90;;;;;;;8.99;100.00;101856.88;10177477;29;20051;-69
2024/02/18 14:28:37;;;;;;;1999.90;999.90;;;;;;;9.01;100.00;101821.13;10177255;29;20056;-69
2024/02/18 14:33:39;;;;;;;1999.90;999.90;;;;;;;9.30;100.00;101817.47;10177855;29;20056;-69
2024/02/18 14:38:42;;;;;;;1999.90;999.90;;;;;;;9.42;100.00;101800.50;10176591;29;20484;-69
2024/02/18 14:43:45;;;;;;;1999.90;999.90;;;;;;;9.34;100.00;101810.38;10177372;29;20131;-69
2024/02/18 14:48:47;;;;;;;1999.90;999.90;;;;;;;9.41;100.00;101790.09;10176087;29;20131;-70
2024/02/18 14:53:50;;;;;;;1999.90;999.90;;;;;;;9.55;100.00;101786.97;10175403;29;20058;-69
2024/02/18 14:58:53;;;;;;;1999.90;999.90;;;;;;;9.67;100.00;101778.69;10175798;29;20070;-69
2024/02/18 15:03:55;;;;;;;1999.90;999.90;;;;;;;9.80;100.00;101777.31;10176064;29;20461;-69
2024/02/18 15:08:58;;;;;;;1999.90;999.90;;;;;;;10.01;100.00;101785.22;10175883;29;20449;-69
2024/02/18 15:14:03;;;;;;;1999.90;999.90;;;;;;;9.85;100.00;101782.34;10176441;29;20055;-69
2024/02/18 15:19:06;;;;;;;1999.90;999.90;;;;;;;9.89;100.00;101772.63;10176268;29;20131;-69
2024/02/18 15:24:09;;;;;;;1999.90;999.90;;;;;;;10.01;100.00;101769.53;10175866;29;20050;-69
2024/02/18 15:29:12;;;;;;;1999.90;999.90;;;;;;;10.09;100.00;101777.94;10174877;29;20052;-69
2024/02/18 15:34:16;;;;;;;1999.90;999.90;;;;;;;10.32;100.00;101778.78;10175905;29;20090;-69
2024/02/18 15:39:18;;;;;;;1999.90;999.90;;;;;;;10.31;100.00;101779.69;10175153;29;20123;-69
2024/02/18 15:44:21;;;;;;;1999.90;999.90;;;;;;;10.50;100.00;101787.66;10174361;29;20058;-69
2024/02/18 15:49:23;;;;;;;1999.90;999.90;;;;;;;10.51;100.00;101789.38;10174058;29;20551;-69
2024/02/18 15:54:26;;;;;;;1999.90;999.90;;;;;;;10.48;100.00;101787.72;10175420;29;20064;-69
2024/02/18 15:59:28;;;;;;;1999.90;999.90;;;;;;;10.58;100.00;101796.91;10175309;29;20060;-69
2024/02/18 16:04:32;;;;;;;1999.90;999.90;;;;;;;10.62;100.00;101802.84;10174041;29;20123;-69
2024/02/18 16:09:35;;;;;;;1999.90;999.90;;;;;;;10.67;100.00;101802.69;10175273;29;20064;-69
2024/02/18 16:14:37;;;;;;;1999.90;999.90;;;;;;;10.84;100.00;101794.09;10175071;29;20107;-69
2024/02/18 16:19:40;;;;;;;1999.90;999.90;;;;;;;10.85;100.00;101795.81;10174503;29;20403;-68
2024/02/18 16:24:44;;;;;;;1999.90;999.90;;;;;;;10.68;100.00;101800.00;10173936;29;20407;-68
2024/02/18 16:29:46;;;;;;;1999.90;999.90;;;;;;;10.70;100.00;101813.03;10174759;29;20052;-68
2024/02/18 16:34:49;;;;;;;1999.90;999.90;;;;;;;10.65;100.00;101801.91;10174670;29;20055;-68
2024/02/18 16:39:53;;;;;;;1999.90;999.90;;;;;;;10.60;100.00;101825.66;10209614;23;20056;-68
2024/02/18 16:44:55;;;;;;;1999.90;999.90;;;;;;;10.61;100.00;101835.22;10213119;29;20051;-68
2024/02/18 16:49:58;;;;;;;1999.90;999.90;;;;;;;10.50;100.00;101842.66;10213726;29;20051;-68
2024/02/18 16:55:01;;;;;;;1999.90;999.90;;;;;;;10.48;100.00;101847.94;10211835;29;20103;-68
2024/02/18 17:00:05;;;;;;;1999.90;999.90;;;;;;;10.55;100.00;101870.34;10213588;29;20067;-68
2024/02/18 17:05:11;;;;;;;1999.90;999.90;;;;;;;10.57;100.00;101884.25;10219287;29;20054;-68
2024/02/18 17:10:14;;;;;;;1999.90;999.90;;;;;;;10.21;100.00;101889.13;10218595;29;20521;-68
2024/02/18 17:15:16;;;;;;;1999.90;999.90;;;;;;;10.23;100.00;101931.78;10219487;29;20051;-68
2024/02/18 17:20:19;;;;;;;1999.90;999.90;;;;;;;9.96;100.00;101905.75;10218155;29;20131;-68
2024/02/18 17:25:21;;;;;;;1999.90;999.90;;;;;;;9.94;100.00;101915.41;10218523;29;20048;-68
2024/02/18 17:30:24;;;;;;;1999.90;999.90;;;;;;;9.79;100.00;101934.28;10218437;29;20059;-68
2024/02/18 17:35:28;;;;;;;1999.90;999.90;;;;;;;9.77;100.00;101941.34;10218431;29;20047;-68
2024/02/18 17:40:30;;;;;;;1999.90;999.90;;;;;;;9.75;100.00;101946.63;10218628;29;20059;-68
2024/02/18 17:45:33;;;;;;;1999.90;999.90;;;;;;;9.76;100.00;101957.94;10202259;29;20126;-68
2024/02/18 17:50:36;;;;;;;1999.90;999.90;;;;;;;9.73;100.00;101965.88;10218218;29;20566;-68
2024/02/18 17:55:44;;;;;;;1999.90;999.90;;;;;;;9.45;100.00;101985.16;10218687;29;20056;-68
2024/02/18 18:00:47;;;;;;;1999.90;999.90;;;;;;;9.33;100.00;101986.41;10218451;29;20062;-68
2024/02/18 18:05:49;;;;;;;1999.90;999.90;;;;;;;9.32;100.00;101989.06;10200858;29;20051;-68
2024/02/18 18:10:52;;;;;;;1999.90;999.90;;;;;;;9.32;100.00;102008.22;10218094;29;20051;-68
2024/02/18 18:15:54;;;;;;;1999.90;999.90;;;;;;;9.17;100.00;102011.31;10217107;29;20055;-68
2024/02/18 18:20:57;;;;;;;1999.90;999.90;;;;;;;9.13;100.00;102013.19;10200906;29;20055;-68
2024/02/18 18:25:59;;;;;;;1999.90;999.90;;;;;;;9.09;100.00;102035.06;10216643;29;20440;-68
2024/02/18 18:31:04;;;;;;;1999.90;999.90;;;;;;;9.07;100.00;102040.34;10217253;29;20075;-68
2024/02/18 18:36:07;;;;;;;1999.90;999.90;;;;;;;9.26;100.00;102051.09;10216540;29;20450;-68
2024/02/18 18:41:10;;;;;;;1999.90;999.90;;;;;;;9.18;100.00;102047.88;10214992;29;20396;-68
2024/02/18 18:46:12;;;;;;;1999.90;999.90;;;;;;;9.17;100.00;102058.38;10199208;29;20044;-68
2024/02/18 18:51:15;;;;;;;1999.90;999.90;;;;;;;9.06;100.00;102071.75;10216726;29;20059;-68
2024/02/18 18:56:17;;;;;;;1999.90;999.90;;;;;;;9.24;100.00;102081.63;10216379;29;20078;-68
2024/02/18 19:01:19;;;;;;;1999.90;999.90;;;;;;;9.18;100.00;102087.06;10216154;29;20075;-68
2024/02/18 19:06:22;;;;;;;1999.90;999.90;;;;;;;9.23;100.00;102099.97;10214192;29;20102;-68
2024/02/18 19:11:25;;;;;;;1999.90;999.90;;;;;;;9.34;100.00;102103.09;10215239;29;20514;-68
2024/02/18 19:16:34;;;;;;;1999.90;999.90;;;;;;;9.21;100.00;102107.00;10215696;29;20048;-68
2024/02/18 19:21:37;;;;;;;1999.90;999.90;;;;;;;9.17;100.00;102106.25;10214814;29;20483;-68
2024/02/18 19:26:42;;;;;;;1999.90;999.90;;;;;;;9.27;100.00;102119.88;10214541;29;20122;-68
2024/02/18 19:31:44;;;;;;;1999.90;999.90;;;;;;;9.20;100.00;102131.44;10215229;29;20119;-68
2024/02/18 19:36:49;;;;;;;1999.90;999.90;;;;;;;9.27;100.00;102119.88;10215086;29;20047;-68
2024/02/18 19:41:52;;;;;;;1999.90;999.90;;;;;;;9.34;100.00;102116.16;10214214;29;20087;-68
2024/02/18 19:46:55;;;;;;;1999.90;999.90;;;;;;;9.14;100.00;102147.28;10214843;29;20071;-68
2024/02/18 19:51:58;;;;;;;1999.90;999.90;;;;;;;9.17;100.00;102135.00;10214775;29;20047;-68
2024/02/18 19:57:00;;;;;;;1999.90;999.90;;;;;;;9.25;100.00;102147.84;10213499;29;20086;-68
2024/02/18 20:02:05;;;;;;;1999.90;999.90;;;;;;;9.29;100.00;102160.75;10213537;29;20127;-68
2024/02/18 20:07:08;;;;;;;1999.90;999.90;;;;;;;9.20;100.00;102171.47;10214550;29;20056;-68
2024/02/18 20:12:10;;;;;;;1999.90;999.90;;;;;;;9.09;100.00;102165.72;10213233;29;20079;-68
2024/02/18 20:17:14;;;;;;;1999.90;999.90;;;;;;;9.21;100.00;102165.38;10213731;29;20586;-68
2024/02/18 20:22:17;;;;;;;1999.90;999.90;;;;;;;9.12;100.00;102173.47;10214185;29;20052;-68
2024/02/18 20:27:20;;;;;;;1999.90;999.90;;;;;;;9.10;100.00;102178.72;10213581;29;20547;-68
2024/02/18 20:32:22;;;;;;;1999.90;999.90;;;;;;;9.10;100.00;102181.34;10213490;29;20506;-68
2024/02/18 20:37:25;;;;;;;1999.90;999.90;;;;;;;9.02;100.00;102191.16;10217316;29;20059;-68
2024/02/18 20:42:27;;;;;;;1999.90;999.90;;;;;;;8.93;100.00;102180.97;10221388;29;20043;-68
2024/02/18 20:47:29;;;;;;;1999.90;999.90;;;;;;;8.99;100.00;102164.28;10219422;29;20529;-68
2024/02/18 20:52:32;;;;;;;1999.90;999.90;;;;;;;8.95;100.00;102181.78;10220416;29;20384;-68
2024/02/18 20:57:35;;;;;;;1999.90;999.90;;;;;;;9.06;100.00;102192.78;10220866;29;20052;-68
2024/02/18 21:02:39;;;;;;;1999.90;999.90;;;;;;;9.06;100.00;102212.81;10220111;29;20506;-68
2024/02/18 21:07:41;;;;;;;1999.90;999.90;;;;;;;8.97;100.00;102215.72;10219335;29;20056;-68
2024/02/18 21:12:44;;;;;;;1999.90;999.90;;;;;;;8.99;100.00;102235.66;10219657;29;20451;-68
2024/02/18 21:17:46;;;;;;;1999.90;999.90;;;;;;;9.00;100.00;102240.00;10220099;29;20048;-68
2024/02/18 21:22:49;;;;;;;1999.90;999.90;;;;;;;8.99;100.00;102255.69;10219159;29;20047;-68
2024/02/18 21:27:51;;;;;;;1999.90;999.90;;;;;;;8.86;100.00;102269.09;10219109;29;20514;-68
2024/02/18 21:32:54;;;;;;;1999.90;999.90;;;;;;;9.02;100.00;102276.53;10219520;29;20044;-68
2024/02/18 21:37:56;;;;;;;1999.90;999.90;;;;;;;9.08;100.00;102269.38;10219055;29;20051;-68
2024/02/18 21:42:59;;;;;;;1999.90;999.90;;;;;;;9.13;100.00;102270.97;10218209;29;20056;-68
2024/02/18 21:48:02;;;;;;;1999.90;999.90;;;;;;;8.99;100.00;102272.22;10217199;29;20384;-68
2024/02/18 21:53:05;;;;;;;1999.90;999.90;;;;;;;8.96;100.00;102279.28;10218770;29;20099;-68